sensor_id;sensor_type;location;lat;lon;timestamp;temperature;humidity
36444;DHT22;24692;45.642;13.806;2022-09-14T00:01:09;21.70;99.90
36444;DHT22;24692;45.642;13.806;2022-09-14T00:03:36;21.70;99.90
36444;DHT22;24692;45.642;13.806;2022-09-14T00:06:03;21.70;99.90
36444;DHT22;24692;45.642;13.806;2022-09-14T00:08:29;21.60;99.90
36444;DHT22;24692;45.642;13.806;2022-09-14T00:10:55;21.60;99.90
36444;DHT22;24692;45.642;13.806;2022-09-14T00:13:20;21.60;99.90
36444;DHT22;24692;45.642;13.806;2022-09-14T00:15:46;21.60;99.90
36444;DHT22;24692;45.642;13.806;2022-09-14T00:18:12;21.60;99.90
36444;DHT22;24692;45.642;13.806;2022-09-14T00:20:37;21.60;99.90
36444;DHT22;24692;45.642;13.806;2022-09-14T00:23:03;21.50;99.90
36444;DHT22;24692;45.642;13.806;2022-09-14T00:25:30;21.50;99.90
36444;DHT22;24692;45.642;13.806;2022-09-14T00:27:56;21.60;99.90
36444;DHT22;24692;45.642;13.806;2022-09-14T00:30:23;21.50;99.90
36444;DHT22;24692;45.642;13.806;2022-09-14T00:32:50;21.50;99.90
36444;DHT22;24692;45.642;13.806;2022-09-14T00:35:16;21.50;99.90
36444;DHT22;24692;45.642;13.806;2022-09-14T00:37:42;21.50;99.90
36444;DHT22;24692;45.642;13.806;2022-09-14T00:40:09;21.40;99.90
36444;DHT22;24692;45.642;13.806;2022-09-14T00:42:36;21.40;99.90
36444;DHT22;24692;45.642;13.806;2022-09-14T00:45:15;21.40;99.90
36444;DHT22;24692;45.642;13.806;2022-09-14T00:47:41;21.50;99.90
36444;DHT22;24692;45.642;13.806;2022-09-14T00:50:09;21.50;99.90
36444;DHT22;24692;45.642;13.806;2022-09-14T00:52:37;21.40;99.90
36444;DHT22;24692;45.642;13.806;2022-09-14T00:55:11;21.50;99.90
36444;DHT22;24692;45.642;13.806;2022-09-14T00:57:45;21.50;99.90
36444;DHT22;24692;45.642;13.806;2022-09-14T01:00:14;21.50;99.90
36444;DHT22;24692;45.642;13.806;2022-09-14T01:02:40;21.50;99.90
36444;DHT22;24692;45.642;13.806;2022-09-14T01:05:07;21.60;99.90
36444;DHT22;24692;45.642;13.806;2022-09-14T01:19:18;21.60;99.90
36444;DHT22;24692;45.642;13.806;2022-09-14T01:21:47;21.60;99.90
36444;DHT22;24692;45.642;13.806;2022-09-14T01:27:31;21.70;99.90
36444;DHT22;24692;45.642;13.806;2022-09-14T01:30:05;21.70;99.90
36444;DHT22;24692;45.642;13.806;2022-09-14T01:32:38;21.80;99.90
36444;DHT22;24692;45.642;13.806;2022-09-14T01:35:24;21.70;99.90
36444;DHT22;24692;45.642;13.806;2022-09-14T01:38:03;21.70;99.90
36444;DHT22;24692;45.642;13.806;2022-09-14T01:40:39;21.70;99.90
36444;DHT22;24692;45.642;13.806;2022-09-14T01:43:10;21.60;99.90
36444;DHT22;24692;45.642;13.806;2022-09-14T01:45:42;21.60;99.90
36444;DHT22;24692;45.642;13.806;2022-09-14T01:48:10;21.60;99.90
36444;DHT22;24692;45.642;13.806;2022-09-14T01:50:40;21.60;99.90
36444;DHT22;24692;45.642;13.806;2022-09-14T01:56:43;21.70;99.90
36444;DHT22;24692;45.642;13.806;2022-09-14T01:58:50;21.70;99.90
36444;DHT22;24692;45.642;13.806;2022-09-14T02:01:23;21.70;99.90
36444;DHT22;24692;45.642;13.806;2022-09-14T02:03:54;21.70;99.90
36444;DHT22;24692;45.642;13.806;2022-09-14T02:06:38;21.70;99.90
36444;DHT22;24692;45.642;13.806;2022-09-14T02:09:06;21.70;99.90
36444;DHT22;24692;45.642;13.806;2022-09-14T02:11:33;21.70;99.90
36444;DHT22;24692;45.642;13.806;2022-09-14T02:13:59;21.70;99.90
36444;DHT22;24692;45.642;13.806;2022-09-14T02:16:25;21.70;99.90
36444;DHT22;24692;45.642;13.806;2022-09-14T02:18:51;21.70;99.90
36444;DHT22;24692;45.642;13.806;2022-09-14T02:21:29;21.60;99.90
36444;DHT22;24692;45.642;13.806;2022-09-14T02:23:57;21.70;99.90
36444;DHT22;24692;45.642;13.806;2022-09-14T02:26:23;21.60;99.90
36444;DHT22;24692;45.642;13.806;2022-09-14T02:28:49;21.60;99.90
36444;DHT22;24692;45.642;13.806;2022-09-14T02:37:12;21.50;99.90
36444;DHT22;24692;45.642;13.806;2022-09-14T02:49:04;21.40;99.90
36444;DHT22;24692;45.642;13.806;2022-09-14T02:51:29;21.50;99.90
36444;DHT22;24692;45.642;13.806;2022-09-14T02:56:28;21.40;99.90
36444;DHT22;24692;45.642;13.806;2022-09-14T02:58:55;21.40;99.90
36444;DHT22;24692;45.642;13.806;2022-09-14T03:01:22;21.40;99.90
36444;DHT22;24692;45.642;13.806;2022-09-14T03:03:48;21.50;99.90
36444;DHT22;24692;45.642;13.806;2022-09-14T03:06:14;21.50;99.90
36444;DHT22;24692;45.642;13.806;2022-09-14T03:08:40;21.50;99.90
36444;DHT22;24692;45.642;13.806;2022-09-14T03:11:06;21.50;99.90
36444;DHT22;24692;45.642;13.806;2022-09-14T03:13:33;21.50;99.90
36444;DHT22;24692;45.642;13.806;2022-09-14T03:16:07;21.50;99.90
36444;DHT22;24692;45.642;13.806;2022-09-14T03:18:34;21.50;99.90
36444;DHT22;24692;45.642;13.806;2022-09-14T03:21:02;21.50;99.90
36444;DHT22;24692;45.642;13.806;2022-09-14T03:23:29;21.40;99.90
36444;DHT22;24692;45.642;13.806;2022-09-14T03:25:55;21.50;99.90
36444;DHT22;24692;45.642;13.806;2022-09-14T03:28:20;21.50;99.90
36444;DHT22;24692;45.642;13.806;2022-09-14T03:30:46;21.60;99.90
36444;DHT22;24692;45.642;13.806;2022-09-14T03:33:13;21.70;99.90
36444;DHT22;24692;45.642;13.806;2022-09-14T03:35:39;21.70;99.90
36444;DHT22;24692;45.642;13.806;2022-09-14T03:38:05;21.80;99.90
36444;DHT22;24692;45.642;13.806;2022-09-14T03:40:31;21.90;99.90
36444;DHT22;24692;45.642;13.806;2022-09-14T03:42:56;21.90;99.90
36444;DHT22;24692;45.642;13.806;2022-09-14T03:45:22;21.90;99.90
36444;DHT22;24692;45.642;13.806;2022-09-14T03:47:48;22.00;99.90
36444;DHT22;24692;45.642;13.806;2022-09-14T03:50:15;22.10;99.90
36444;DHT22;24692;45.642;13.806;2022-09-14T03:52:41;22.10;99.90
36444;DHT22;24692;45.642;13.806;2022-09-14T03:55:07;22.10;99.90
36444;DHT22;24692;45.642;13.806;2022-09-14T03:57:34;22.10;99.90
36444;DHT22;24692;45.642;13.806;2022-09-14T03:59:59;22.10;99.90
36444;DHT22;24692;45.642;13.806;2022-09-14T04:02:27;22.10;99.90
36444;DHT22;24692;45.642;13.806;2022-09-14T04:04:52;22.10;99.90
36444;DHT22;24692;45.642;13.806;2022-09-14T04:07:18;22.00;99.90
36444;DHT22;24692;45.642;13.806;2022-09-14T04:09:44;22.00;99.90
36444;DHT22;24692;45.642;13.806;2022-09-14T04:12:10;22.00;99.90
36444;DHT22;24692;45.642;13.806;2022-09-14T04:14:35;21.90;99.90
36444;DHT22;24692;45.642;13.806;2022-09-14T04:17:01;21.80;99.90
36444;DHT22;24692;45.642;13.806;2022-09-14T04:19:27;21.70;99.90
36444;DHT22;24692;45.642;13.806;2022-09-14T04:21:53;21.60;99.90
36444;DHT22;24692;45.642;13.806;2022-09-14T04:24:19;21.60;99.90
36444;DHT22;24692;45.642;13.806;2022-09-14T04:26:45;21.50;99.90
36444;DHT22;24692;45.642;13.806;2022-09-14T04:29:11;21.60;99.90
36444;DHT22;24692;45.642;13.806;2022-09-14T04:31:37;21.60;99.90
36444;DHT22;24692;45.642;13.806;2022-09-14T04:34:03;21.60;99.90
36444;DHT22;24692;45.642;13.806;2022-09-14T04:36:29;21.60;99.90
36444;DHT22;24692;45.642;13.806;2022-09-14T04:38:58;21.60;99.90
36444;DHT22;24692;45.642;13.806;2022-09-14T04:41:24;21.60;99.90
36444;DHT22;24692;45.642;13.806;2022-09-14T04:43:51;21.60;99.90
36444;DHT22;24692;45.642;13.806;2022-09-14T04:46:22;21.60;99.90
36444;DHT22;24692;45.642;13.806;2022-09-14T04:48:49;21.60;99.90
36444;DHT22;24692;45.642;13.806;2022-09-14T04:51:16;21.60;99.90
36444;DHT22;24692;45.642;13.806;2022-09-14T04:53:43;21.60;99.90
36444;DHT22;24692;45.642;13.806;2022-09-14T04:56:11;21.70;99.90
36444;DHT22;24692;45.642;13.806;2022-09-14T04:58:41;21.80;99.90
36444;DHT22;24692;45.642;13.806;2022-09-14T05:01:10;21.80;99.90
36444;DHT22;24692;45.642;13.806;2022-09-14T05:03:37;21.80;99.90
36444;DHT22;24692;45.642;13.806;2022-09-14T05:06:11;21.70;99.90
36444;DHT22;24692;45.642;13.806;2022-09-14T05:08:37;21.70;99.90
36444;DHT22;24692;45.642;13.806;2022-09-14T05:11:05;21.70;99.90
36444;DHT22;24692;45.642;13.806;2022-09-14T05:13:31;21.80;99.90
36444;DHT22;24692;45.642;13.806;2022-09-14T05:16:08;21.80;99.90
36444;DHT22;24692;45.642;13.806;2022-09-14T05:18:34;21.70;99.90
36444;DHT22;24692;45.642;13.806;2022-09-14T05:21:02;21.70;99.90
36444;DHT22;24692;45.642;13.806;2022-09-14T05:23:28;21.80;99.90
36444;DHT22;24692;45.642;13.806;2022-09-14T05:25:54;22.00;99.90
36444;DHT22;24692;45.642;13.806;2022-09-14T05:28:19;22.20;99.90
36444;DHT22;24692;45.642;13.806;2022-09-14T05:30:45;22.20;99.90
36444;DHT22;24692;45.642;13.806;2022-09-14T05:33:11;22.20;99.90
36444;DHT22;24692;45.642;13.806;2022-09-14T05:35:37;22.30;99.90
36444;DHT22;24692;45.642;13.806;2022-09-14T05:38:02;22.20;99.90
36444;DHT22;24692;45.642;13.806;2022-09-14T05:40:28;22.30;99.90
36444;DHT22;24692;45.642;13.806;2022-09-14T05:42:54;22.40;99.90
36444;DHT22;24692;45.642;13.806;2022-09-14T05:45:19;22.40;99.90
36444;DHT22;24692;45.642;13.806;2022-09-14T05:47:46;22.40;99.90
36444;DHT22;24692;45.642;13.806;2022-09-14T05:50:12;22.40;99.90
36444;DHT22;24692;45.642;13.806;2022-09-14T05:52:39;22.50;99.90
36444;DHT22;24692;45.642;13.806;2022-09-14T05:55:05;22.50;99.90
36444;DHT22;24692;45.642;13.806;2022-09-14T05:57:31;22.50;99.90
36444;DHT22;24692;45.642;13.806;2022-09-14T05:59:57;22.50;99.90
36444;DHT22;24692;45.642;13.806;2022-09-14T06:02:23;22.70;99.90
36444;DHT22;24692;45.642;13.806;2022-09-14T06:04:48;22.90;99.90
36444;DHT22;24692;45.642;13.806;2022-09-14T06:07:14;23.40;99.90
36444;DHT22;24692;45.642;13.806;2022-09-14T06:09:40;23.50;99.90
36444;DHT22;24692;45.642;13.806;2022-09-14T06:12:07;23.80;99.90
36444;DHT22;24692;45.642;13.806;2022-09-14T06:14:33;24.10;99.90
36444;DHT22;24692;45.642;13.806;2022-09-14T06:16:59;24.20;99.90
36444;DHT22;24692;45.642;13.806;2022-09-14T06:19:25;24.40;99.90
36444;DHT22;24692;45.642;13.806;2022-09-14T06:21:51;24.50;99.90
36444;DHT22;24692;45.642;13.806;2022-09-14T06:24:17;24.60;99.90
36444;DHT22;24692;45.642;13.806;2022-09-14T06:26:42;24.80;99.90
36444;DHT22;24692;45.642;13.806;2022-09-14T06:29:08;25.20;99.90
36444;DHT22;24692;45.642;13.806;2022-09-14T06:31:34;25.30;99.90
36444;DHT22;24692;45.642;13.806;2022-09-14T06:34:00;25.40;99.90
36444;DHT22;24692;45.642;13.806;2022-09-14T06:36:27;25.10;99.90
36444;DHT22;24692;45.642;13.806;2022-09-14T06:38:53;24.80;99.90
36444;DHT22;24692;45.642;13.806;2022-09-14T06:41:22;25.10;99.90
36444;DHT22;24692;45.642;13.806;2022-09-14T06:43:49;25.10;99.90
36444;DHT22;24692;45.642;13.806;2022-09-14T06:46:19;25.10;99.90
36444;DHT22;24692;45.642;13.806;2022-09-14T06:49:06;24.80;99.90
36444;DHT22;24692;45.642;13.806;2022-09-14T06:51:40;25.20;99.90
36444;DHT22;24692;45.642;13.806;2022-09-14T06:54:07;25.40;99.90
36444;DHT22;24692;45.642;13.806;2022-09-14T06:56:35;25.20;99.90
36444;DHT22;24692;45.642;13.806;2022-09-14T06:59:01;25.00;99.90
36444;DHT22;24692;45.642;13.806;2022-09-14T07:01:27;24.60;99.90
36444;DHT22;24692;45.642;13.806;2022-09-14T07:03:54;24.90;99.90
36444;DHT22;24692;45.642;13.806;2022-09-14T07:06:22;25.10;99.90
36444;DHT22;24692;45.642;13.806;2022-09-14T07:08:50;25.50;99.90
36444;DHT22;24692;45.642;13.806;2022-09-14T07:11:19;25.70;99.90
36444;DHT22;24692;45.642;13.806;2022-09-14T07:13:45;25.70;99.90
36444;DHT22;24692;45.642;13.806;2022-09-14T07:16:12;26.00;99.90
36444;DHT22;24692;45.642;13.806;2022-09-14T07:18:39;25.60;99.90
36444;DHT22;24692;45.642;13.806;2022-09-14T07:23:36;25.80;99.90
36444;DHT22;24692;45.642;13.806;2022-09-14T07:26:04;25.60;99.90
36444;DHT22;24692;45.642;13.806;2022-09-14T07:28:31;25.50;99.90
36444;DHT22;24692;45.642;13.806;2022-09-14T07:30:57;25.70;99.90
36444;DHT22;24692;45.642;13.806;2022-09-14T07:33:23;25.70;99.90
36444;DHT22;24692;45.642;13.806;2022-09-14T07:35:49;26.00;99.90
36444;DHT22;24692;45.642;13.806;2022-09-14T07:38:14;26.50;99.90
36444;DHT22;24692;45.642;13.806;2022-09-14T07:40:40;27.30;99.90
36444;DHT22;24692;45.642;13.806;2022-09-14T07:43:06;27.20;99.90
36444;DHT22;24692;45.642;13.806;2022-09-14T07:45:33;27.60;99.90
36444;DHT22;24692;45.642;13.806;2022-09-14T07:47:59;27.40;99.90
36444;DHT22;24692;45.642;13.806;2022-09-14T07:50:25;27.40;99.90
36444;DHT22;24692;45.642;13.806;2022-09-14T07:52:50;27.20;99.90
36444;DHT22;24692;45.642;13.806;2022-09-14T07:55:17;26.80;99.90
36444;DHT22;24692;45.642;13.806;2022-09-14T07:57:43;26.70;99.90
36444;DHT22;24692;45.642;13.806;2022-09-14T08:00:09;26.10;99.90
36444;DHT22;24692;45.642;13.806;2022-09-14T08:02:35;26.30;99.90
36444;DHT22;24692;45.642;13.806;2022-09-14T08:05:01;26.70;99.90
36444;DHT22;24692;45.642;13.806;2022-09-14T08:07:27;26.20;99.90
36444;DHT22;24692;45.642;13.806;2022-09-14T08:09:53;25.80;99.90
36444;DHT22;24692;45.642;13.806;2022-09-14T08:12:19;26.00;99.90
36444;DHT22;24692;45.642;13.806;2022-09-14T08:14:44;26.10;99.90
36444;DHT22;24692;45.642;13.806;2022-09-14T08:17:10;26.30;99.90
36444;DHT22;24692;45.642;13.806;2022-09-14T08:19:36;26.40;99.90
36444;DHT22;24692;45.642;13.806;2022-09-14T08:22:03;26.30;99.90
36444;DHT22;24692;45.642;13.806;2022-09-14T08:24:29;25.90;99.90
36444;DHT22;24692;45.642;13.806;2022-09-14T08:26:55;25.70;99.90
36444;DHT22;24692;45.642;13.806;2022-09-14T08:29:20;25.40;99.90
36444;DHT22;24692;45.642;13.806;2022-09-14T08:31:47;25.50;99.90
36444;DHT22;24692;45.642;13.806;2022-09-14T08:34:14;25.30;99.90
36444;DHT22;24692;45.642;13.806;2022-09-14T08:36:41;25.40;99.90
36444;DHT22;24692;45.642;13.806;2022-09-14T08:39:09;25.60;99.90
36444;DHT22;24692;45.642;13.806;2022-09-14T08:47:16;27.70;99.90
36444;DHT22;24692;45.642;13.806;2022-09-14T08:58:07;28.30;99.90
36444;DHT22;24692;45.642;13.806;2022-09-14T09:00:43;28.30;99.90
36444;DHT22;24692;45.642;13.806;2022-09-14T09:06:15;27.80;99.90
36444;DHT22;24692;45.642;13.806;2022-09-14T09:11:40;28.00;99.90
36444;DHT22;24692;45.642;13.806;2022-09-14T09:14:31;28.30;99.90
36444;DHT22;24692;45.642;13.806;2022-09-14T09:17:00;28.00;99.90
36444;DHT22;24692;45.642;13.806;2022-09-14T09:22:23;28.00;99.90
36444;DHT22;24692;45.642;13.806;2022-09-14T09:24:53;27.80;99.90
36444;DHT22;24692;45.642;13.806;2022-09-14T09:27:21;27.60;99.90
36444;DHT22;24692;45.642;13.806;2022-09-14T09:29:47;27.50;99.90
36444;DHT22;24692;45.642;13.806;2022-09-14T09:32:21;27.40;99.90
36444;DHT22;24692;45.642;13.806;2022-09-14T09:34:47;27.10;99.90
36444;DHT22;24692;45.642;13.806;2022-09-14T09:37:16;27.00;99.90
36444;DHT22;24692;45.642;13.806;2022-09-14T09:39:42;27.10;99.90
36444;DHT22;24692;45.642;13.806;2022-09-14T09:45:00;26.90;99.90
36444;DHT22;24692;45.642;13.806;2022-09-14T09:50:05;27.10;99.90
36444;DHT22;24692;45.642;13.806;2022-09-14T09:52:58;27.50;99.90
36444;DHT22;24692;45.642;13.806;2022-09-14T09:55:30;27.80;99.90
36444;DHT22;24692;45.642;13.806;2022-09-14T09:58:26;27.90;99.90
36444;DHT22;24692;45.642;13.806;2022-09-14T10:01:00;28.10;99.90
36444;DHT22;24692;45.642;13.806;2022-09-14T10:03:38;28.20;99.90
36444;DHT22;24692;45.642;13.806;2022-09-14T10:06:07;28.30;99.90
36444;DHT22;24692;45.642;13.806;2022-09-14T10:08:40;28.30;99.90
36444;DHT22;24692;45.642;13.806;2022-09-14T10:11:30;28.40;99.90
36444;DHT22;24692;45.642;13.806;2022-09-14T10:13:57;28.30;99.90
36444;DHT22;24692;45.642;13.806;2022-09-14T10:16:25;28.20;99.90
36444;DHT22;24692;45.642;13.806;2022-09-14T10:18:53;27.90;99.90
36444;DHT22;24692;45.642;13.806;2022-09-14T10:21:21;28.10;99.90
36444;DHT22;24692;45.642;13.806;2022-09-14T10:24:05;28.00;99.90
36444;DHT22;24692;45.642;13.806;2022-09-14T10:26:34;27.80;99.90
36444;DHT22;24692;45.642;13.806;2022-09-14T10:31:46;27.70;99.90
36444;DHT22;24692;45.642;13.806;2022-09-14T10:34:18;28.00;99.90
36444;DHT22;24692;45.642;13.806;2022-09-14T10:36:51;28.10;99.90
36444;DHT22;24692;45.642;13.806;2022-09-14T10:39:40;28.10;99.90
36444;DHT22;24692;45.642;13.806;2022-09-14T10:42:28;28.00;99.90
36444;DHT22;24692;45.642;13.806;2022-09-14T10:50:46;28.00;99.90
36444;DHT22;24692;45.642;13.806;2022-09-14T11:07:15;27.30;99.90
36444;DHT22;24692;45.642;13.806;2022-09-14T11:10:27;27.40;99.90
36444;DHT22;24692;45.642;13.806;2022-09-14T11:27:39;29.80;99.90
36444;DHT22;24692;45.642;13.806;2022-09-14T11:30:19;30.80;99.90
36444;DHT22;24692;45.642;13.806;2022-09-14T11:32:58;32.10;99.90
36444;DHT22;24692;45.642;13.806;2022-09-14T11:35:47;32.10;99.90
36444;DHT22;24692;45.642;13.806;2022-09-14T11:38:20;32.40;99.90
36444;DHT22;24692;45.642;13.806;2022-09-14T11:41:08;32.40;99.90
36444;DHT22;24692;45.642;13.806;2022-09-14T11:46:23;32.40;99.90
36444;DHT22;24692;45.642;13.806;2022-09-14T11:51:57;31.00;99.90
36444;DHT22;24692;45.642;13.806;2022-09-14T11:54:26;30.30;99.90
36444;DHT22;24692;45.642;13.806;2022-09-14T11:56:58;30.20;99.90
36444;DHT22;24692;45.642;13.806;2022-09-14T11:59:35;29.90;99.90
36444;DHT22;24692;45.642;13.806;2022-09-14T12:12:41;32.10;99.90
36444;DHT22;24692;45.642;13.806;2022-09-14T12:17:53;32.80;99.90
36444;DHT22;24692;45.642;13.806;2022-09-14T12:20:41;33.30;99.90
36444;DHT22;24692;45.642;13.806;2022-09-14T12:23:28;33.10;99.90
36444;DHT22;24692;45.642;13.806;2022-09-14T12:28:36;34.70;99.90
36444;DHT22;24692;45.642;13.806;2022-09-14T12:36:07;35.10;99.90
36444;DHT22;24692;45.642;13.806;2022-09-14T12:51:43;32.10;99.90
36444;DHT22;24692;45.642;13.806;2022-09-14T12:54:29;31.90;99.90
36444;DHT22;24692;45.642;13.806;2022-09-14T13:05:14;30.20;99.90
36444;DHT22;24692;45.642;13.806;2022-09-14T13:07:41;29.80;99.90
36444;DHT22;24692;45.642;13.806;2022-09-14T13:10:14;29.50;99.90
36444;DHT22;24692;45.642;13.806;2022-09-14T13:12:43;29.20;99.90
36444;DHT22;24692;45.642;13.806;2022-09-14T13:18:27;30.10;99.90
36444;DHT22;24692;45.642;13.806;2022-09-14T13:20:59;31.70;99.90
36444;DHT22;24692;45.642;13.806;2022-09-14T13:23:36;31.20;99.90
36444;DHT22;24692;45.642;13.806;2022-09-14T13:26:34;32.10;99.90
36444;DHT22;24692;45.642;13.806;2022-09-14T13:29:01;33.00;99.90
36444;DHT22;24692;45.642;13.806;2022-09-14T13:31:33;33.90;99.90
36444;DHT22;24692;45.642;13.806;2022-09-14T13:34:00;33.50;99.90
36444;DHT22;24692;45.642;13.806;2022-09-14T13:36:33;32.10;99.90
36444;DHT22;24692;45.642;13.806;2022-09-14T13:39:00;31.00;99.90
36444;DHT22;24692;45.642;13.806;2022-09-14T13:41:30;30.60;99.90
36444;DHT22;24692;45.642;13.806;2022-09-14T13:43:57;30.40;99.90
36444;DHT22;24692;45.642;13.806;2022-09-14T13:46:25;30.50;99.90
36444;DHT22;24692;45.642;13.806;2022-09-14T13:48:52;31.40;99.90
36444;DHT22;24692;45.642;13.806;2022-09-14T13:51:23;31.60;99.90
36444;DHT22;24692;45.642;13.806;2022-09-14T13:53:54;31.20;99.90
36444;DHT22;24692;45.642;13.806;2022-09-14T13:56:29;30.70;99.90
36444;DHT22;24692;45.642;13.806;2022-09-14T14:01:50;29.60;99.90
36444;DHT22;24692;45.642;13.806;2022-09-14T14:04:36;29.20;99.90
36444;DHT22;24692;45.642;13.806;2022-09-14T14:07:21;29.20;99.90
36444;DHT22;24692;45.642;13.806;2022-09-14T14:09:54;29.10;99.90
36444;DHT22;24692;45.642;13.806;2022-09-14T14:12:32;29.40;99.90
36444;DHT22;24692;45.642;13.806;2022-09-14T14:15:35;29.40;99.90
36444;DHT22;24692;45.642;13.806;2022-09-14T14:17:52;29.10;99.90
36444;DHT22;24692;45.642;13.806;2022-09-14T14:20:35;28.70;99.90
36444;DHT22;24692;45.642;13.806;2022-09-14T14:23:22;28.10;99.90
36444;DHT22;24692;45.642;13.806;2022-09-14T14:25:51;27.70;99.90
36444;DHT22;24692;45.642;13.806;2022-09-14T14:28:22;27.60;99.90
36444;DHT22;24692;45.642;13.806;2022-09-14T14:30:48;27.60;99.90
36444;DHT22;24692;45.642;13.806;2022-09-14T14:33:16;27.70;99.90
36444;DHT22;24692;45.642;13.806;2022-09-14T14:35:44;27.70;99.90
36444;DHT22;24692;45.642;13.806;2022-09-14T14:38:11;27.80;99.90
36444;DHT22;24692;45.642;13.806;2022-09-14T14:40:37;28.40;99.90
36444;DHT22;24692;45.642;13.806;2022-09-14T14:43:04;29.00;99.90
36444;DHT22;24692;45.642;13.806;2022-09-14T14:45:31;29.00;99.90
36444;DHT22;24692;45.642;13.806;2022-09-14T14:47:58;28.80;99.90
36444;DHT22;24692;45.642;13.806;2022-09-14T14:50:30;28.80;99.90
36444;DHT22;24692;45.642;13.806;2022-09-14T14:52:58;28.70;99.90
36444;DHT22;24692;45.642;13.806;2022-09-14T14:55:25;29.00;99.90
36444;DHT22;24692;45.642;13.806;2022-09-14T14:57:53;29.00;99.90
36444;DHT22;24692;45.642;13.806;2022-09-14T15:00:23;28.90;99.90
36444;DHT22;24692;45.642;13.806;2022-09-14T15:02:50;28.60;99.90
36444;DHT22;24692;45.642;13.806;2022-09-14T15:05:16;29.00;99.90
36444;DHT22;24692;45.642;13.806;2022-09-14T15:07:42;29.30;99.90
36444;DHT22;24692;45.642;13.806;2022-09-14T15:10:14;29.60;99.90
36444;DHT22;24692;45.642;13.806;2022-09-14T15:12:39;30.50;99.90
36444;DHT22;24692;45.642;13.806;2022-09-14T15:15:09;31.20;99.90
36444;DHT22;24692;45.642;13.806;2022-09-14T15:17:36;31.10;99.90
36444;DHT22;24692;45.642;13.806;2022-09-14T15:20:01;31.60;99.90
36444;DHT22;24692;45.642;13.806;2022-09-14T15:22:27;32.00;99.90
36444;DHT22;24692;45.642;13.806;2022-09-14T15:24:53;31.90;99.90
36444;DHT22;24692;45.642;13.806;2022-09-14T15:27:18;32.00;99.90
36444;DHT22;24692;45.642;13.806;2022-09-14T15:29:44;31.90;99.90
36444;DHT22;24692;45.642;13.806;2022-09-14T15:32:09;31.50;99.90
36444;DHT22;24692;45.642;13.806;2022-09-14T15:34:35;31.50;99.90
36444;DHT22;24692;45.642;13.806;2022-09-14T15:37:01;31.40;99.90
36444;DHT22;24692;45.642;13.806;2022-09-14T15:39:28;31.10;99.90
36444;DHT22;24692;45.642;13.806;2022-09-14T15:41:54;31.00;99.90
36444;DHT22;24692;45.642;13.806;2022-09-14T15:44:21;30.90;99.90
36444;DHT22;24692;45.642;13.806;2022-09-14T15:46:47;31.10;99.90
36444;DHT22;24692;45.642;13.806;2022-09-14T15:49:17;30.90;99.90
36444;DHT22;24692;45.642;13.806;2022-09-14T15:51:45;30.70;99.90
36444;DHT22;24692;45.642;13.806;2022-09-14T15:54:11;30.60;99.90
36444;DHT22;24692;45.642;13.806;2022-09-14T15:56:37;30.10;99.90
36444;DHT22;24692;45.642;13.806;2022-09-14T15:59:05;30.00;99.90
36444;DHT22;24692;45.642;13.806;2022-09-14T16:01:31;30.00;99.90
36444;DHT22;24692;45.642;13.806;2022-09-14T16:04:01;29.80;99.90
36444;DHT22;24692;45.642;13.806;2022-09-14T16:06:28;29.40;99.90
36444;DHT22;24692;45.642;13.806;2022-09-14T16:08:54;29.10;99.90
36444;DHT22;24692;45.642;13.806;2022-09-14T16:11:20;28.70;99.90
36444;DHT22;24692;45.642;13.806;2022-09-14T16:13:46;28.60;99.90
36444;DHT22;24692;45.642;13.806;2022-09-14T16:16:15;28.50;99.90
36444;DHT22;24692;45.642;13.806;2022-09-14T16:18:41;28.20;99.90
36444;DHT22;24692;45.642;13.806;2022-09-14T16:21:15;27.90;99.90
36444;DHT22;24692;45.642;13.806;2022-09-14T16:23:43;27.50;99.90
36444;DHT22;24692;45.642;13.806;2022-09-14T16:26:16;27.30;99.90
36444;DHT22;24692;45.642;13.806;2022-09-14T16:28:43;27.30;99.90
36444;DHT22;24692;45.642;13.806;2022-09-14T16:31:27;27.20;99.90
36444;DHT22;24692;45.642;13.806;2022-09-14T16:33:55;27.20;99.90
36444;DHT22;24692;45.642;13.806;2022-09-14T16:36:25;27.20;99.90
36444;DHT22;24692;45.642;13.806;2022-09-14T16:38:52;27.00;99.90
36444;DHT22;24692;45.642;13.806;2022-09-14T16:41:19;27.00;99.90
36444;DHT22;24692;45.642;13.806;2022-09-14T16:43:45;26.90;99.90
36444;DHT22;24692;45.642;13.806;2022-09-14T16:46:13;26.80;99.90
36444;DHT22;24692;45.642;13.806;2022-09-14T16:48:41;26.80;99.90
36444;DHT22;24692;45.642;13.806;2022-09-14T16:51:08;26.80;99.90
36444;DHT22;24692;45.642;13.806;2022-09-14T16:53:36;26.80;99.90
36444;DHT22;24692;45.642;13.806;2022-09-14T16:56:07;26.70;99.90
36444;DHT22;24692;45.642;13.806;2022-09-14T16:58:34;26.70;99.90
36444;DHT22;24692;45.642;13.806;2022-09-14T17:01:05;26.60;99.90
36444;DHT22;24692;45.642;13.806;2022-09-14T17:03:33;26.60;99.90
36444;DHT22;24692;45.642;13.806;2022-09-14T17:06:00;26.50;99.90
36444;DHT22;24692;45.642;13.806;2022-09-14T17:08:26;26.50;99.90
36444;DHT22;24692;45.642;13.806;2022-09-14T17:10:52;26.50;99.90
36444;DHT22;24692;45.642;13.806;2022-09-14T17:13:17;26.40;99.90
36444;DHT22;24692;45.642;13.806;2022-09-14T17:15:43;26.40;99.90
36444;DHT22;24692;45.642;13.806;2022-09-14T17:18:09;26.30;99.90
36444;DHT22;24692;45.642;13.806;2022-09-14T17:20:34;26.20;99.90
36444;DHT22;24692;45.642;13.806;2022-09-14T17:23:00;26.20;99.90
36444;DHT22;24692;45.642;13.806;2022-09-14T17:25:26;26.20;99.90
36444;DHT22;24692;45.642;13.806;2022-09-14T17:27:53;26.10;99.90
36444;DHT22;24692;45.642;13.806;2022-09-14T17:30:18;26.10;99.90
36444;DHT22;24692;45.642;13.806;2022-09-14T17:32:44;26.00;99.90
36444;DHT22;24692;45.642;13.806;2022-09-14T17:35:10;26.00;99.90
36444;DHT22;24692;45.642;13.806;2022-09-14T17:37:35;25.90;99.90
36444;DHT22;24692;45.642;13.806;2022-09-14T17:40:01;25.90;99.90
36444;DHT22;24692;45.642;13.806;2022-09-14T17:42:27;25.90;99.90
36444;DHT22;24692;45.642;13.806;2022-09-14T17:44:52;25.90;99.90
36444;DHT22;24692;45.642;13.806;2022-09-14T17:47:18;25.80;99.90
36444;DHT22;24692;45.642;13.806;2022-09-14T17:49:44;25.80;99.90
36444;DHT22;24692;45.642;13.806;2022-09-14T17:52:09;25.70;99.90
36444;DHT22;24692;45.642;13.806;2022-09-14T17:54:35;25.70;99.90
36444;DHT22;24692;45.642;13.806;2022-09-14T17:57:00;25.70;99.90
36444;DHT22;24692;45.642;13.806;2022-09-14T17:59:26;25.60;99.90
36444;DHT22;24692;45.642;13.806;2022-09-14T18:01:52;25.60;99.90
36444;DHT22;24692;45.642;13.806;2022-09-14T18:04:18;25.60;99.90